Time;durP1;ratioP1;P1;durP2;ratioP2;P2;SDS_P1;SDS_P2;PMS_P1;PMS_P2;Temp;Humidity;BMP_temperature;BMP_pressure;BME280_temperature;BME280_humidity;BME280_pressure;Samples;Min_cycle;Max_cycle;Signal;HPM_P1;HPM_P2
2021/06/19 00:00:52;;;;;;;6.90;2.30;;;;;;;32.03;36.74;69491.59;5034144;28;20662;-76
2021/06/19 00:03:20;;;;;;;7.65;2.47;;;;;;;32.01;36.69;69489.47;5038580;28;20670;-75
2021/06/19 00:05:47;;;;;;;12.93;3.23;;;;;;;32.02;36.12;69490.94;5043630;28;20206;-75
2021/06/19 00:08:14;;;;;;;6.32;2.42;;;;;;;32.00;37.09;69489.22;5036119;28;20220;-75
2021/06/19 00:10:43;;;;;;;7.60;2.87;;;;;;;32.02;36.20;69490.94;5043978;28;20206;-75
2021/06/19 00:13:11;;;;;;;7.20;2.47;;;;;;;32.03;36.54;69492.94;5032524;28;20226;-75
2021/06/19 00:15:38;;;;;;;9.00;2.38;;;;;;;32.01;38.24;69490.16;5031167;28;20209;-74
2021/06/19 00:18:06;;;;;;;7.97;2.97;;;;;;;32.01;37.59;69490.50;5035335;28;20235;-75
2021/06/19 00:20:33;;;;;;;8.73;3.40;;;;;;;32.02;37.72;69491.00;5041553;28;20216;-75
2021/06/19 00:23:00;;;;;;;12.70;3.22;;;;;;;31.97;40.82;69485.53;5042763;28;20668;-74
2021/06/19 00:25:29;;;;;;;73.10;7.72;;;;;;;31.87;46.90;69473.78;5034985;28;20578;-75
2021/06/19 00:27:58;;;;;;;13.50;3.13;;;;;;;31.79;47.38;69464.88;5042956;28;20229;-74
2021/06/19 00:30:25;;;;;;;15.13;4.10;;;;;;;31.73;47.64;69457.81;5040385;28;20688;-74
2021/06/19 00:32:53;;;;;;;16.90;3.60;;;;;;;31.66;47.51;69449.69;5033027;28;20721;-74
2021/06/19 00:35:21;;;;;;;13.90;3.33;;;;;;;31.61;46.97;69443.91;5035311;28;20221;-75
2021/06/19 00:37:49;;;;;;;17.00;3.67;;;;;;;31.54;48.49;69436.06;5034006;28;20239;-74
2021/06/19 00:40:17;;;;;;;19.97;4.13;;;;;;;31.46;49.91;69427.03;5032259;28;20209;-74
2021/06/19 00:42:52;;;;;;;15.03;3.83;;;;;;;31.39;51.40;69419.31;5037878;28;20203;-77
2021/06/19 00:45:20;;;;;;;8.93;3.10;;;;;;;31.30;51.99;69409.69;5031374;28;20202;-76
2021/06/19 00:47:48;;;;;;;9.20;3.23;;;;;;;31.20;53.75;69398.53;5043343;28;20250;-77
2021/06/19 00:50:16;;;;;;;6.40;3.03;;;;;;;31.12;55.10;69390.03;5040635;28;20202;-76
2021/06/19 00:52:44;;;;;;;10.83;3.80;;;;;;;31.06;54.22;69382.44;5036425;28;20346;-76
2021/06/19 00:55:12;;;;;;;14.83;3.77;;;;;;;30.96;55.02;69371.44;5042442;28;20210;-76
2021/06/19 00:57:40;;;;;;;10.80;3.50;;;;;;;30.90;53.07;69365.25;5036487;28;20320;-76
2021/06/19 01:00:09;;;;;;;9.10;3.40;;;;;;;30.85;57.83;69359.09;5032811;28;20469;-76
2021/06/19 01:02:39;;;;;;;10.87;4.00;;;;;;;30.78;58.48;69351.66;5041578;28;20230;-77
2021/06/19 01:05:08;;;;;;;6.97;3.10;;;;;;;30.72;56.64;69345.50;5042497;28;20249;-77
2021/06/19 01:07:36;;;;;;;12.27;3.47;;;;;;;30.69;55.67;69342.09;5040846;28;20633;-74
2021/06/19 01:10:05;;;;;;;10.43;3.17;;;;;;;30.64;56.66;69336.19;5040305;28;20211;-74
2021/06/19 01:12:34;;;;;;;10.13;3.23;;;;;;;30.62;55.75;69334.47;5036444;28;20285;-74
2021/06/19 01:15:01;;;;;;;11.17;3.80;;;;;;;30.59;56.28;69330.66;5033746;28;20260;-74
2021/06/19 01:17:29;;;;;;;12.43;4.00;;;;;;;30.57;56.25;69329.28;5042331;28;20211;-75
2021/06/19 01:20:08;;;;;;;13.23;3.80;;;;;;;30.54;57.07;69325.25;5038199;28;20319;-75
2021/06/19 01:22:37;;;;;;;11.97;4.13;;;;;;;30.49;57.86;69320.38;5035540;28;20212;-74
2021/06/19 01:25:08;;;;;;;11.83;3.67;;;;;;;30.44;59.20;69315.09;5033648;28;20210;-74
2021/06/19 01:27:35;;;;;;;13.70;4.07;;;;;;;30.40;58.10;69310.69;5033543;28;20254;-75
2021/06/19 01:30:06;;;;;;;14.70;3.60;;;;;;;30.38;57.06;69308.53;5035389;28;20203;-75
2021/06/19 01:32:35;;;;;;;10.77;4.07;;;;;;;30.38;55.70;69308.88;5038756;28;20222;-75
2021/06/19 01:35:03;;;;;;;11.10;3.90;;;;;;;30.36;56.42;69306.44;5033665;28;20268;-75
2021/06/19 01:37:30;;;;;;;14.30;3.90;;;;;;;30.35;54.75;69305.28;5040348;28;20202;-75
2021/06/19 01:40:07;;;;;;;12.10;4.10;;;;;;;30.35;55.04;69304.84;5033826;28;20245;-74
2021/06/19 01:42:35;;;;;;;11.43;4.27;;;;;;;30.37;53.91;69306.84;5033742;28;20252;-74
2021/06/19 01:45:02;;;;;;;9.97;3.40;;;;;;;30.37;54.92;69307.44;5032396;28;20215;-74
2021/06/19 01:47:29;;;;;;;14.43;4.40;;;;;;;30.38;55.37;69308.00;5037984;28;20206;-77
2021/06/19 01:49:57;;;;;;;9.53;4.00;;;;;;;30.39;54.58;69309.44;5035472;28;20218;-75
2021/06/19 01:52:24;;;;;;;16.17;4.17;;;;;;;30.38;56.92;69308.00;5046454;28;20776;-74
2021/06/19 01:54:51;;;;;;;9.60;4.27;;;;;;;30.34;59.05;69303.66;5036283;28;20208;-75
2021/06/19 01:57:20;;;;;;;13.87;4.00;;;;;;;30.33;57.26;69302.66;5033974;28;20252;-75
2021/06/19 01:59:47;;;;;;;15.00;3.80;;;;;;;30.34;56.55;69303.84;5038165;28;20206;-75
2021/06/19 02:02:14;;;;;;;14.23;3.80;;;;;;;30.38;56.05;69308.63;5033327;28;20230;-75
2021/06/19 02:04:42;;;;;;;11.83;3.60;;;;;;;30.38;57.48;69309.25;5030871;28;20206;-75
2021/06/19 02:07:09;;;;;;;15.20;4.97;;;;;;;30.38;57.71;69309.38;5043881;28;20203;-75
2021/06/19 02:09:36;;;;;;;10.43;4.10;;;;;;;30.37;60.65;69308.00;5039076;28;20235;-75
2021/06/19 02:12:04;;;;;;;6.70;4.00;;;;;;;30.34;64.48;69304.53;5030712;28;20213;-76
2021/06/19 02:14:33;;;;;;;10.90;4.30;;;;;;;30.33;62.00;69302.91;5027998;28;20215;-75
2021/06/19 02:17:00;;;;;;;16.30;4.47;;;;;;;30.28;66.62;69298.19;5041632;28;20229;-76
2021/06/19 02:19:27;;;;;;;11.67;4.43;;;;;;;30.29;63.08;69298.16;5035644;28;20586;-75
2021/06/19 02:21:54;;;;;;;11.47;4.00;;;;;;;30.30;61.87;69299.59;5035510;28;20690;-75
2021/06/19 02:24:22;;;;;;;11.53;4.00;;;;;;;30.30;60.50;69300.31;5037113;28;20210;-75
2021/06/19 02:26:49;;;;;;;14.37;4.57;;;;;;;30.31;60.95;69301.25;5032298;28;20213;-75
2021/06/19 02:29:16;;;;;;;11.43;4.10;;;;;;;30.31;63.17;69302.00;5031582;28;20620;-75
2021/06/19 02:31:45;;;;;;;11.93;4.60;;;;;;;30.30;64.38;69300.44;5032160;28;20220;-75
2021/06/19 02:34:12;;;;;;;7.77;4.33;;;;;;;30.29;64.74;69299.41;5028322;28;20321;-75
2021/06/19 02:36:39;;;;;;;11.30;4.40;;;;;;;30.27;65.95;69297.44;5037812;28;20207;-75
2021/06/19 02:39:07;;;;;;;9.93;4.00;;;;;;;30.21;70.78;69290.53;5036171;28;20225;-75
2021/06/19 02:41:34;;;;;;;11.73;4.10;;;;;;;30.17;68.05;69285.16;5035367;28;20218;-76
2021/06/19 02:44:01;;;;;;;10.57;4.00;;;;;;;30.16;64.62;69284.66;5034438;28;20209;-74
2021/06/19 02:46:28;;;;;;;12.87;5.37;;;;;;;30.12;66.87;69280.63;5039167;28;20281;-77
2021/06/19 02:48:57;;;;;;;10.83;4.20;;;;;;;30.09;66.25;69276.84;5031251;28;20305;-76
2021/06/19 02:51:24;;;;;;;9.20;4.23;;;;;;;30.04;65.65;69270.88;5034176;28;20659;-76
2021/06/19 02:53:51;;;;;;;12.73;3.87;;;;;;;30.03;63.50;69270.28;5033220;28;20689;-77
2021/06/19 02:56:19;;;;;;;12.53;4.23;;;;;;;30.04;63.86;69271.94;5038505;28;20202;-75
2021/06/19 02:58:46;;;;;;;15.60;5.73;;;;;;;30.04;63.65;69272.59;5039632;28;20238;-75
2021/06/19 03:01:13;;;;;;;11.00;4.40;;;;;;;30.01;67.48;69268.84;5036422;28;20210;-74
2021/06/19 03:03:41;;;;;;;7.93;4.10;;;;;;;29.93;68.79;69260.44;5029900;28;20213;-76
2021/06/19 03:06:09;;;;;;;13.93;4.00;;;;;;;29.93;64.56;69259.91;5033436;28;20207;-74
2021/06/19 03:08:37;;;;;;;12.43;4.87;;;;;;;29.91;65.36;69258.00;5032017;28;20605;-76
2021/06/19 03:11:05;;;;;;;12.80;5.30;;;;;;;29.88;65.36;69255.00;5036386;28;20210;-75
2021/06/19 03:13:32;;;;;;;10.70;4.50;;;;;;;29.86;65.94;69252.75;5035718;28;20284;-76
2021/06/19 03:16:00;;;;;;;11.40;3.83;;;;;;;29.82;68.18;69247.41;5037295;28;20214;-76
2021/06/19 03:18:27;;;;;;;10.70;4.20;;;;;;;29.81;66.37;69246.88;5030366;28;20450;-76
2021/06/19 03:20:54;;;;;;;7.73;4.60;;;;;;;29.78;68.89;69243.59;5033233;28;20575;-76
2021/06/19 03:23:23;;;;;;;11.73;4.73;;;;;;;29.70;74.06;69235.06;5043345;28;20198;-75
2021/06/19 03:25:50;;;;;;;12.03;4.37;;;;;;;29.62;75.25;69225.72;5038525;28;20221;-76
2021/06/19 03:28:17;;;;;;;12.67;5.00;;;;;;;29.59;70.43;69223.16;5030170;28;20227;-76
2021/06/19 03:30:47;;;;;;;8.60;4.50;;;;;;;29.58;68.43;69221.94;5033435;28;20198;-76
2021/06/19 03:33:16;;;;;;;13.93;5.27;;;;;;;29.57;68.88;69220.31;5036148;28;20233;-76
2021/06/19 03:35:43;;;;;;;10.13;4.73;;;;;;;29.56;68.88;69219.34;5029303;28;20206;-74
2021/06/19 03:38:11;;;;;;;14.33;5.33;;;;;;;29.49;73.42;69211.81;5031052;28;20233;-76
2021/06/19 03:40:40;;;;;;;12.87;5.27;;;;;;;29.47;70.04;69210.50;5040219;28;20209;-74
2021/06/19 03:43:07;;;;;;;12.37;5.27;;;;;;;29.44;72.73;69206.38;5035407;28;20217;-74
2021/06/19 03:45:36;;;;;;;12.73;4.80;;;;;;;29.40;74.38;69202.09;5034135;28;20723;-76
2021/06/19 03:48:03;;;;;;;8.67;4.70;;;;;;;29.33;76.67;69195.06;5033436;28;20313;-76
2021/06/19 03:50:31;;;;;;;14.77;5.37;;;;;;;29.29;74.50;69190.34;5031887;28;20209;-76
2021/06/19 03:52:59;;;;;;;10.27;5.23;;;;;;;29.27;74.42;69188.38;5036434;28;20265;-76
2021/06/19 03:55:27;;;;;;;13.97;4.83;;;;;;;29.28;71.72;69188.97;5042610;28;20208;-76
2021/06/19 03:57:56;;;;;;;9.60;5.30;;;;;;;29.30;69.66;69192.06;5036356;28;20669;-75
2021/06/19 04:00:24;;;;;;;15.07;6.00;;;;;;;29.30;70.65;69191.59;5034875;28;20777;-74
2021/06/19 04:02:52;;;;;;;10.43;5.10;;;;;;;29.32;68.75;69194.53;5033956;28;20195;-75
2021/06/19 04:05:19;;;;;;;11.37;4.97;;;;;;;29.30;72.74;69192.88;5037419;28;20202;-77
2021/06/19 04:07:47;;;;;;;13.60;5.80;;;;;;;29.34;67.84;69196.91;5041521;28;20703;-75
2021/06/19 04:10:15;;;;;;;11.70;4.87;;;;;;;29.34;69.86;69198.25;5035895;28;20297;-75
2021/06/19 04:12:43;;;;;;;14.90;4.93;;;;;;;29.38;67.66;69202.63;5040248;28;20214;-75
2021/06/19 04:15:14;;;;;;;10.27;4.83;;;;;;;29.40;67.74;69205.34;5040150;28;20210;-75
2021/06/19 04:17:42;;;;;;;13.50;4.87;;;;;;;29.43;68.22;69208.56;5033002;28;20231;-75
2021/06/19 04:20:11;;;;;;;12.93;5.03;;;;;;;29.46;67.95;69211.69;5033942;28;20210;-75
2021/06/19 04:22:39;;;;;;;14.17;5.10;;;;;;;29.45;71.39;69210.41;5033822;28;20207;-75
2021/06/19 04:25:08;;;;;;;11.27;6.23;;;;;;;29.45;70.30;69210.91;5043309;28;20257;-75
2021/06/19 04:27:39;;;;;;;12.07;5.63;;;;;;;29.46;69.81;69212.44;5039650;28;20744;-75
2021/06/19 04:30:09;;;;;;;12.27;5.23;;;;;;;29.48;68.63;69214.91;5030714;28;20218;-75
2021/06/19 04:32:38;;;;;;;11.10;5.10;;;;;;;29.50;69.04;69216.50;5033653;28;20206;-75
2021/06/19 04:35:06;;;;;;;11.37;5.47;;;;;;;29.54;66.22;69222.00;5042682;28;20214;-75
2021/06/19 04:37:34;;;;;;;8.37;5.03;;;;;;;29.58;65.35;69226.13;5037202;28;20216;-75
2021/06/19 04:40:07;;;;;;;10.50;5.10;;;;;;;29.59;68.59;69227.75;5043466;28;20217;-75
2021/06/19 04:42:38;;;;;;;11.97;5.40;;;;;;;29.58;72.40;69226.19;5035373;28;20209;-75
2021/06/19 04:45:06;;;;;;;11.97;5.60;;;;;;;29.57;72.56;69225.50;5029810;28;20202;-75
2021/06/19 04:47:35;;;;;;;13.40;6.07;;;;;;;29.55;73.10;69223.56;5039019;28;20271;-75
2021/06/19 04:50:05;;;;;;;15.13;6.07;;;;;;;29.54;72.35;69221.91;5038746;28;20198;-75
2021/06/19 04:52:34;;;;;;;17.83;6.03;;;;;;;29.60;67.44;69228.84;5029047;28;20222;-75
2021/06/19 04:55:02;;;;;;;7.97;5.30;;;;;;;29.68;64.75;69237.69;5043184;28;20242;-74
2021/06/19 04:57:29;;;;;;;10.80;5.50;;;;;;;29.75;63.15;69245.91;5039145;28;20207;-75
2021/06/19 04:59:58;;;;;;;12.73;5.13;;;;;;;29.80;64.85;69251.59;5055169;22;20234;-72
2021/06/19 05:02:25;;;;;;;12.60;5.67;;;;;;;29.82;67.65;69253.78;5026377;28;20682;-69
2021/06/19 05:04:52;;;;;;;12.30;4.90;;;;;;;29.87;64.95;69259.25;5032789;28;20285;-72
2021/06/19 05:07:21;;;;;;;15.27;6.23;;;;;;;29.94;63.81;69267.16;5032641;28;20203;-68
2021/06/19 05:09:48;;;;;;;13.53;6.73;;;;;;;29.91;71.62;69264.63;5032636;28;20229;-68
2021/06/19 05:12:15;;;;;;;12.57;5.20;;;;;;;29.96;66.01;69269.66;5032600;28;20200;-69
2021/06/19 05:14:43;;;;;;;14.07;4.97;;;;;;;30.02;62.34;69276.56;5028340;28;20323;-69
2021/06/19 05:17:10;;;;;;;12.90;5.10;;;;;;;30.05;64.52;69281.22;5031051;28;20199;-68
2021/06/19 05:19:37;;;;;;;11.30;5.60;;;;;;;30.12;63.36;69288.47;5031411;28;20244;-68
2021/06/19 05:22:05;;;;;;;12.70;5.50;;;;;;;30.22;59.97;69300.50;5032595;28;20206;-71
2021/06/19 05:24:35;;;;;;;11.70;5.10;;;;;;;30.35;57.44;69315.47;5031564;28;20560;-68
2021/06/19 05:27:02;;;;;;;10.23;5.70;;;;;;;30.47;56.61;69329.16;5032071;28;20208;-68
2021/06/19 05:29:29;;;;;;;8.50;5.50;;;;;;;30.61;55.13;69345.44;5031315;28;20596;-69
2021/06/19 05:31:56;;;;;;;8.27;5.13;;;;;;;30.74;54.90;69359.06;5030725;28;20545;-68
2021/06/19 05:34:24;;;;;;;11.70;5.07;;;;;;;30.88;53.51;69375.56;5028911;28;20725;-68
2021/06/19 05:36:51;;;;;;;9.48;5.65;;;;;;;31.00;53.72;69389.56;5028948;28;20586;-69
2021/06/19 05:39:19;;;;;;;9.98;5.22;;;;;;;31.13;53.66;69403.50;5030347;28;20566;-70
2021/06/19 05:41:47;;;;;;;12.18;5.20;;;;;;;31.24;53.70;69416.31;5031538;28;20207;-70
2021/06/19 05:44:14;;;;;;;14.50;5.38;;;;;;;31.35;52.98;69428.56;5028296;28;20214;-70
2021/06/19 05:46:42;;;;;;;10.05;5.50;;;;;;;31.33;60.15;69427.13;5032199;28;20206;-70
2021/06/19 05:49:09;;;;;;;11.30;5.45;;;;;;;31.39;55.71;69433.50;5031425;28;20586;-70
2021/06/19 05:51:36;;;;;;;9.38;4.90;;;;;;;31.48;53.10;69443.13;5030479;28;20233;-75
2021/06/19 05:54:04;;;;;;;9.38;5.20;;;;;;;31.58;52.03;69454.97;5031905;28;20248;-74
2021/06/19 05:56:31;;;;;;;8.52;5.20;;;;;;;31.67;52.07;69464.25;5026630;28;20207;-73
2021/06/19 05:59:00;;;;;;;11.65;4.90;;;;;;;31.77;51.85;69475.97;5032367;28;20238;-71
2021/06/19 06:01:30;;;;;;;10.30;4.85;;;;;;;31.85;52.18;69484.84;5031884;28;20765;-73
2021/06/19 06:03:57;;;;;;;8.88;4.57;;;;;;;31.93;51.73;69493.75;5028870;28;20234;-71
2021/06/19 06:06:24;;;;;;;10.15;4.80;;;;;;;31.99;52.45;69500.94;5030347;28;20648;-73
2021/06/19 06:08:52;;;;;;;11.32;4.93;;;;;;;32.02;53.23;69505.03;5030400;28;20229;-72
2021/06/19 06:11:19;;;;;;;11.82;5.45;;;;;;;32.02;55.59;69504.59;5031051;28;20202;-74
2021/06/19 06:13:47;;;;;;;7.82;4.82;;;;;;;31.99;56.26;69501.28;5036789;28;20232;-74
2021/06/19 06:16:16;;;;;;;10.63;4.80;;;;;;;31.95;56.63;69497.78;5032331;28;20219;-77
2021/06/19 06:18:43;;;;;;;11.10;4.93;;;;;;;31.98;52.64;69501.56;5031857;28;20222;-74
2021/06/19 06:21:10;;;;;;;7.43;4.47;;;;;;;32.07;49.39;69511.72;5031979;28;20206;-74
2021/06/19 06:23:40;;;;;;;11.52;4.78;;;;;;;32.08;54.37;69512.94;5031226;28;20211;-80
2021/06/19 06:26:08;;;;;;;7.97;4.57;;;;;;;32.07;54.79;69512.06;5029079;28;20223;-75
2021/06/19 06:28:38;;;;;;;12.10;4.57;;;;;;;31.97;61.94;69501.78;5032066;28;20240;-74
2021/06/19 06:31:05;;;;;;;9.05;4.88;;;;;;;31.95;58.80;69498.44;5029254;28;20393;-80
2021/06/19 06:33:34;;;;;;;11.02;4.20;;;;;;;32.01;51.90;69505.94;5029593;28;20706;-76
2021/06/19 06:36:01;;;;;;;9.10;4.45;;;;;;;32.11;49.17;69517.00;5030119;28;20230;-73
2021/06/19 06:38:28;;;;;;;8.98;4.75;;;;;;;32.14;51.94;69521.25;5030232;28;20245;-69
2021/06/19 06:40:56;;;;;;;6.60;4.55;;;;;;;32.21;50.16;69528.25;5029881;28;20199;-74
2021/06/19 06:43:23;;;;;;;7.13;4.18;;;;;;;32.22;54.82;69529.88;5037226;28;20216;-76
2021/06/19 06:45:51;;;;;;;10.88;4.78;;;;;;;32.29;50.65;69537.69;5033307;28;20258;-77
2021/06/19 06:48:18;;;;;;;12.43;4.45;;;;;;;32.37;49.45;69547.53;5031429;28;20230;-74
2021/06/19 06:50:47;;;;;;;15.18;4.78;;;;;;;32.47;47.75;69560.00;5031759;28;20207;-71
2021/06/19 06:53:14;;;;;;;10.00;4.65;;;;;;;32.59;45.23;69573.41;5027204;28;20210;-72
2021/06/19 06:55:41;;;;;;;7.28;4.47;;;;;;;32.67;47.27;69582.63;5031888;28;20211;-75
2021/06/19 06:58:08;;;;;;;8.48;4.43;;;;;;;32.80;43.51;69597.78;5037097;28;20249;-73
2021/06/19 07:00:36;;;;;;;6.60;4.30;;;;;;;32.89;44.46;69607.66;5032411;28;20201;-73
2021/06/19 07:03:03;;;;;;;10.40;4.70;;;;;;;32.97;43.66;69616.00;5031767;28;20289;-75
2021/06/19 07:05:30;;;;;;;9.93;4.40;;;;;;;33.00;46.67;69619.81;5030769;28;20199;-73
2021/06/19 07:07:59;;;;;;;6.47;3.67;;;;;;;33.09;42.28;69631.06;5027664;28;20236;-73
2021/06/19 07:10:27;;;;;;;7.30;3.70;;;;;;;33.10;47.15;69632.13;5026864;28;20237;-74
2021/06/19 07:12:54;;;;;;;8.38;4.10;;;;;;;33.08;47.74;69630.09;5030438;28;20219;-74
2021/06/19 07:15:21;;;;;;;7.10;3.63;;;;;;;33.08;46.00;69629.94;5030625;28;20249;-73
2021/06/19 07:17:49;;;;;;;5.70;3.25;;;;;;;33.16;43.20;69638.88;5032848;28;20213;-73
2021/06/19 07:20:18;;;;;;;7.60;3.65;;;;;;;33.18;45.14;69641.19;5040218;28;20282;-71
2021/06/19 07:22:45;;;;;;;9.02;3.80;;;;;;;33.25;41.86;69648.97;5045934;28;20278;-72
2021/06/19 07:25:15;;;;;;;5.00;4.05;;;;;;;33.32;42.93;69657.66;5042888;28;20209;-72
2021/06/19 07:27:42;;;;;;;6.30;3.53;;;;;;;33.45;40.07;69671.94;5037973;28;20693;-71
2021/06/19 07:30:12;;;;;;;6.47;3.90;;;;;;;33.43;45.20;69670.06;5033028;28;20687;-70
2021/06/19 07:32:39;;;;;;;10.30;3.63;;;;;;;33.49;41.66;69677.00;5033648;28;20225;-72
2021/06/19 07:35:08;;;;;;;12.18;4.25;;;;;;;33.57;41.54;69685.44;5031318;28;20252;-72
2021/06/19 07:37:36;;;;;;;9.30;4.22;;;;;;;33.55;45.55;69683.00;5032094;28;20248;-73
2021/06/19 07:40:04;;;;;;;9.55;4.03;;;;;;;33.55;46.00;69683.19;5034116;28;20237;-72
2021/06/19 07:42:35;;;;;;;8.55;3.85;;;;;;;33.53;46.47;69682.09;5032651;28;20206;-73
2021/06/19 07:45:03;;;;;;;8.52;3.75;;;;;;;33.60;43.41;69690.34;5033691;28;20198;-74
2021/06/19 07:47:30;;;;;;;10.07;4.10;;;;;;;33.63;45.01;69693.22;5035804;28;20293;-72
2021/06/19 07:49:58;;;;;;;8.95;3.65;;;;;;;33.73;40.72;69705.41;5037067;28;20231;-71
2021/06/19 07:52:25;;;;;;;9.85;3.58;;;;;;;33.84;39.77;69717.66;5033503;28;20203;-70
2021/06/19 07:54:52;;;;;;;6.28;4.07;;;;;;;33.90;40.44;69724.63;5033875;28;20229;-70
2021/06/19 07:57:19;;;;;;;8.48;4.15;;;;;;;34.01;39.37;69737.63;5033960;28;20241;-68
2021/06/19 07:59:48;;;;;;;6.43;3.70;;;;;;;34.13;37.79;69751.06;5027768;28;20325;-73
2021/06/19 08:02:17;;;;;;;9.48;3.80;;;;;;;34.09;43.18;69746.72;5034366;28;20690;-71
2021/06/19 08:04:44;;;;;;;7.93;4.38;;;;;;;34.18;39.57;69757.13;5033888;28;20207;-69
2021/06/19 08:07:11;;;;;;;8.68;4.30;;;;;;;34.31;37.68;69771.97;5034146;28;20208;-70
2021/06/19 08:09:39;;;;;;;12.60;4.85;;;;;;;34.40;39.20;69781.88;5034161;28;20233;-69
2021/06/19 08:12:07;;;;;;;7.25;4.22;;;;;;;34.50;37.26;69793.50;5031377;28;20202;-69
2021/06/19 08:14:35;;;;;;;11.32;4.68;;;;;;;34.57;38.22;69800.38;5031186;28;20231;-70
2021/06/19 08:17:08;;;;;;;8.25;4.35;;;;;;;34.68;36.62;69813.97;5034984;28;20216;-70
2021/06/19 08:19:36;;;;;;;9.35;4.20;;;;;;;34.77;37.78;69822.72;5034323;28;20227;-73
2021/06/19 08:22:04;;;;;;;8.10;4.32;;;;;;;34.77;40.93;69823.06;5034499;28;20294;-69
2021/06/19 08:24:31;;;;;;;6.63;3.85;;;;;;;34.80;39.39;69827.00;5033312;28;20210;-69
2021/06/19 08:26:58;;;;;;;12.52;4.75;;;;;;;34.79;41.54;69826.00;5042953;28;20208;-69
2021/06/19 08:29:25;;;;;;;8.95;4.30;;;;;;;34.88;38.46;69836.53;5033716;28;20315;-69
2021/06/19 08:31:53;;;;;;;14.18;4.70;;;;;;;34.87;41.26;69835.09;5034648;28;20209;-69
2021/06/19 08:34:21;;;;;;;8.50;4.25;;;;;;;34.91;39.85;69839.38;5025238;28;20258;-70
2021/06/19 08:36:49;;;;;;;8.63;4.28;;;;;;;34.87;41.94;69835.16;5036414;28;20217;-69
2021/06/19 08:39:16;;;;;;;9.07;4.40;;;;;;;34.85;40.94;69832.25;5033846;28;20229;-71
2021/06/19 08:41:47;;;;;;;6.22;4.38;;;;;;;34.93;37.86;69841.97;5034937;28;20206;-69
2021/06/19 08:44:22;;;;;;;8.90;4.75;;;;;;;35.01;37.60;69850.28;5033329;28;20221;-69
2021/06/19 08:46:50;;;;;;;8.48;4.50;;;;;;;35.00;40.70;69850.06;5034292;28;20185;-69
2021/06/19 08:49:18;;;;;;;10.48;4.75;;;;;;;34.93;43.10;69841.66;5033970;28;20225;-69
2021/06/19 08:51:47;;;;;;;9.57;4.80;;;;;;;34.91;41.53;69840.09;5034258;28;20201;-69
2021/06/19 08:54:15;;;;;;;8.30;4.53;;;;;;;34.90;42.20;69838.72;5033487;28;20233;-69
2021/06/19 08:56:43;;;;;;;13.25;5.10;;;;;;;34.95;39.99;69844.97;5035557;28;20212;-68
2021/06/19 08:59:10;;;;;;;9.98;5.20;;;;;;;35.02;38.99;69852.31;5032260;28;20319;-71
2021/06/19 09:01:38;;;;;;;7.60;4.85;;;;;;;35.17;35.54;69870.34;5033450;28;20209;-71
2021/06/19 09:04:06;;;;;;;11.98;4.75;;;;;;;35.31;35.60;69885.00;5025187;28;20206;-72
2021/06/19 09:06:37;;;;;;;11.70;5.65;;;;;;;35.31;40.36;69885.66;5033172;28;20209;-75
2021/06/19 09:09:10;;;;;;;11.38;5.88;;;;;;;35.44;35.73;69900.03;5026360;28;20225;-70
2021/06/19 09:11:39;;;;;;;13.38;5.55;;;;;;;35.59;34.19;69917.91;5027316;28;20257;-71
2021/06/19 09:14:08;;;;;;;9.43;5.20;;;;;;;35.61;38.94;69919.34;5028244;28;20202;-71
2021/06/19 09:16:36;;;;;;;15.32;5.50;;;;;;;35.61;38.76;69919.94;5032255;28;20666;-70
2021/06/19 09:19:04;;;;;;;10.25;5.07;;;;;;;35.61;39.28;69920.03;5032193;28;20226;-72
2021/06/19 09:21:35;;;;;;;11.32;5.53;;;;;;;35.71;36.08;69931.31;5031352;28;20210;-70
2021/06/19 09:24:02;;;;;;;10.68;5.68;;;;;;;35.73;38.59;69933.03;5030887;28;20616;-70
2021/06/19 09:26:33;;;;;;;9.27;5.38;;;;;;;35.88;34.05;69949.56;5030976;28;20555;-70
2021/06/19 09:29:04;;;;;;;7.45;5.28;;;;;;;36.02;33.96;69966.16;5031502;28;20231;-70
2021/06/19 09:31:37;;;;;;;10.40;5.70;;;;;;;36.11;35.67;69976.59;5038910;28;20328;-75
2021/06/19 09:34:07;;;;;;;8.35;5.25;;;;;;;36.11;38.73;69976.38;5039671;28;20206;-75
2021/06/19 09:36:45;;;;;;;9.35;5.50;;;;;;;36.22;35.84;69988.94;5032479;28;20199;-77
2021/06/19 09:39:14;;;;;;;9.73;5.50;;;;;;;36.30;35.27;69998.44;5031792;28;20972;-75
2021/06/19 09:41:44;;;;;;;12.20;5.38;;;;;;;36.34;38.33;70002.31;5028305;28;20202;-72
2021/06/19 09:44:12;;;;;;;9.57;5.47;;;;;;;36.35;40.77;70003.75;5028374;28;20209;-76
2021/06/19 09:46:39;;;;;;;10.70;5.43;;;;;;;36.26;45.21;69993.63;5032747;28;20202;-75
2021/06/19 09:49:14;;;;;;;11.20;5.10;;;;;;;36.22;42.69;69989.22;5035544;28;20224;-72
2021/06/19 09:51:52;;;;;;;10.75;5.38;;;;;;;36.27;39.03;69995.59;5034414;28;20285;-76
2021/06/19 09:54:20;;;;;;;11.57;5.65;;;;;;;36.26;41.70;69994.19;5030362;28;20210;-73
2021/06/19 09:56:51;;;;;;;11.48;5.45;;;;;;;36.21;42.55;69988.41;5029074;28;20230;-72
2021/06/19 09:59:26;;;;;;;11.25;5.30;;;;;;;36.20;42.00;69986.91;5032934;28;20278;-75
2021/06/19 10:01:54;;;;;;;12.85;5.40;;;;;;;36.17;40.69;69983.06;5029140;28;20213;-73
2021/06/19 10:04:23;;;;;;;11.43;5.38;;;;;;;36.21;39.09;69987.94;5022171;28;20288;-71
2021/06/19 10:06:50;;;;;;;11.43;5.13;;;;;;;36.21;40.49;69987.53;5028526;28;20209;-73
2021/06/19 10:09:18;;;;;;;12.93;5.20;;;;;;;36.36;34.37;70004.72;5032389;28;20230;-72
2021/06/19 10:11:49;;;;;;;13.27;4.97;;;;;;;36.51;33.66;70021.91;5033584;28;20203;-74
2021/06/19 10:14:19;;;;;;;14.63;5.00;;;;;;;36.49;36.68;70019.72;5032659;28;20198;-80
2021/06/19 10:16:47;;;;;;;15.18;5.40;;;;;;;36.49;36.60;70019.91;5040416;28;20628;-73
2021/06/19 10:19:15;;;;;;;9.80;4.80;;;;;;;36.63;33.03;70035.88;5023699;28;20223;-78
2021/06/19 10:21:44;;;;;;;10.65;4.60;;;;;;;36.74;32.49;70048.00;5031395;28;20198;-73
2021/06/19 10:24:13;;;;;;;11.75;4.45;;;;;;;36.77;35.33;70051.81;5032180;28;20198;-76
2021/06/19 10:26:41;;;;;;;13.18;5.30;;;;;;;36.77;35.70;70051.41;5026585;28;20729;-74
2021/06/19 10:29:10;;;;;;;11.77;4.45;;;;;;;36.71;36.60;70044.97;5035698;28;20215;-75
2021/06/19 10:31:40;;;;;;;12.13;4.60;;;;;;;36.66;36.69;70039.66;5045301;28;20215;-75
2021/06/19 10:34:22;;;;;;;9.02;4.30;;;;;;;36.70;33.69;70044.69;5043932;28;20199;-77
2021/06/19 10:36:49;;;;;;;14.02;4.63;;;;;;;36.85;31.53;70061.72;5038235;28;20232;-72
2021/06/19 10:39:32;;;;;;;17.60;5.50;;;;;;;37.02;30.06;70080.63;5033518;28;20233;-73
2021/06/19 10:42:00;;;;;;;11.48;5.13;;;;;;;37.07;33.44;70086.25;5028704;28;20203;-74
2021/06/19 10:44:50;;;;;;;18.67;4.70;;;;;;;37.05;34.25;70084.22;5031293;28;20567;-76
2021/06/19 10:47:17;;;;;;;15.05;4.72;;;;;;;36.98;33.88;70076.41;5036351;28;20206;-77
2021/06/19 10:49:45;;;;;;;11.48;4.32;;;;;;;37.08;31.54;70087.41;5032140;28;20227;-74
2021/06/19 10:52:27;;;;;;;16.73;4.55;;;;;;;37.13;30.64;70093.28;5031988;28;20195;-72
2021/06/19 10:55:28;;;;;;;10.70;4.07;;;;;;;37.16;33.16;70096.75;5031028;28;20301;-69
2021/06/19 10:57:59;;;;;;;9.65;4.32;;;;;;;37.32;29.52;70114.66;4969798;28;20196;-75
2021/06/19 11:00:31;;;;;;;12.70;4.75;;;;;;;37.45;30.06;70129.88;5042771;23;20233;-81
2021/06/19 11:03:00;;;;;;;9.95;4.72;;;;;;;37.52;30.91;70137.97;5025384;28;20298;-75
2021/06/19 11:06:09;;;;;;;17.77;5.20;;;;;;;37.49;33.29;70134.28;5026574;28;20206;-78
2021/06/19 11:09:00;;;;;;;10.65;4.70;;;;;;;37.40;35.16;70124.44;5031273;28;20214;-74
2021/06/19 11:11:46;;;;;;;15.95;5.47;;;;;;;37.37;33.73;70120.38;5005506;28;20652;-70
2021/06/19 11:14:13;;;;;;;9.43;5.00;;;;;;;37.34;34.48;70117.94;5007003;28;20199;-69
2021/06/19 11:16:46;;;;;;;10.98;4.93;;;;;;;37.39;32.82;70122.81;5007565;28;20223;-71
2021/06/19 11:19:46;;;;;;;9.48;4.90;;;;;;;37.53;29.06;70139.09;5008732;28;20286;-69
2021/06/19 11:22:29;;;;;;;12.60;5.20;;;;;;;37.68;29.22;70155.66;5010937;28;20204;-69
2021/06/19 11:25:15;;;;;;;11.50;4.57;;;;;;;37.85;27.98;70174.28;5009462;28;20214;-71
2021/06/19 11:27:57;;;;;;;12.82;4.53;;;;;;;37.90;29.67;70180.91;5009089;28;20231;-69
2021/06/19 11:30:51;;;;;;;14.13;4.43;;;;;;;38.01;28.32;70192.66;5003073;28;20233;-69
2021/06/19 11:33:43;;;;;;;11.77;5.20;;;;;;;38.02;30.51;70194.50;5010497;28;20207;-69
2021/06/19 11:36:37;;;;;;;8.35;5.15;;;;;;;38.11;29.40;70203.72;5010302;28;20235;-70
2021/06/19 11:39:13;;;;;;;9.32;4.60;;;;;;;38.16;30.33;70209.81;5010931;28;20294;-70